Terminal Aerodrome Forecast
Issued by NWS North Platte, NE

Home | Current Version | Previous Version | Text Only | Print | Product List | Glossary On
Versions: 1 2 3 4 5 6 7 8 9 10 11 12 13 14
000
FTUS43 KLBF 281728
TAFLBF
TAF
KLBF 281728Z 2818/2918 35012G19KT P6SM SCT030
     FM290000 01008KT P6SM SCT040
     FM290300 VRB03KT P6SM SKC
     FM291100 VRB03KT 4SM BR FEW005
     FM291500 27006KT P6SM SKC=

USA.gov is the U.S. government's official web portal to all federal, state and local government web resources and services.